X  Fermer Données météorologiques d'aviation de Metar        LGTS Thessaloniki Macedonia International
Température
17°C Température
8°C Point de rosée
55% Humidité



Vent
7 KM/H
5 MPH
2 M/S
4 KTS



130°
SE
Conditions actuelles

Mostly Clear Généralement dégagé
Pression 1018 (hPa) - 30.06 (inHg)
Visibilité 6 (mile) - 10 (km)
Aéroport
Code de l'aéroport LGTS

Emplacement: Thessaloniki Macedonia International
Distance: 85 (km)

Metar:
METAR LGTS 241650Z 13004KT 080V170 9999 FEW030 17/08 Q1018 NOSIG

Temps: 24-02-2024 18:50 EET